Mineral Springs, Arkansas
Current Conditions -  °F | °C
As of 8:53 PM on Wednesday 26 Nov 2014 (Local Time) from KTXK Reporting Station
Clear Clear  
Wind Chill: 52°   Ceiling: Unl
Heat Index: 52°   Visibility: 10mi
Dew Point: 31°   Wind: 10mph
Humidity: 45%   Direction: 300°WNW
Pressure: 30.26"   Gusts: NA
Location:  33.88°N, 93.91°W
Report Text: KTXK 270253Z 30009KT 10SM CLR 11/M01 A3026 RMK AO2 SLP245 T01111006 51021
Loading
Personal Weather Stations






























Interactive Weather Map New forecast layout! Learn more

10-Day Weather Forecast

Advertisements
Track Severe Weather on mobile